Terminal Aerodrome Forecast
Issued by NWS Atlanta, GA

Home | Current Version | Previous Version | Text Only | Print | Product List | Glossary On
Versions: 1 2 3 4 5 6 7 8 9 10 11 12 13 14 15 16 17 18 19 20 21 22
000
FTUS42 KFFC 280313 AAB
TAFCSG
TAF AMD
KCSG 280313Z 2803/2824 32009KT P6SM FEW070
     FM280600 32006KT P6SM SKC
     FM281500 32009KT P6SM FEW250
     FM282300 30005KT P6SM SCT250=

USA.gov is the U.S. government's official web portal to all federal, state and local government web resources and services.